createdAt,value
2022-10-05T00:09:37.844Z,964.96
2022-10-05T00:24:39.672Z,964.95
2022-10-05T00:39:41.532Z,964.97
2022-10-05T00:54:43.374Z,964.96
2022-10-05T01:09:45.203Z,965.12
2022-10-05T01:24:47.020Z,965.31
2022-10-05T01:39:48.875Z,965.48
2022-10-05T01:54:50.739Z,965.6
2022-10-05T02:09:52.567Z,965.82
2022-10-05T02:24:54.418Z,966.05
2022-10-05T02:39:56.242Z,966.21
2022-10-05T02:54:58.104Z,966.4
2022-10-05T03:10:01.239Z,966.6
2022-10-05T03:25:03.327Z,966.74
2022-10-05T03:40:05.219Z,966.96
2022-10-05T03:55:07.078Z,967.22
2022-10-05T04:10:08.948Z,967.32
2022-10-05T04:25:10.784Z,967.48
2022-10-05T04:40:12.635Z,967.52
2022-10-05T04:55:14.494Z,967.63
2022-10-05T05:10:16.333Z,967.71
2022-10-05T05:25:18.152Z,967.82
2022-10-05T05:40:19.999Z,967.92
2022-10-05T05:55:24.354Z,968.15
2022-10-05T06:10:28.354Z,968.16
2022-10-05T06:25:30.199Z,968.23
2022-10-05T06:40:31.972Z,968.24
2022-10-05T06:55:33.811Z,968.35
2022-10-05T07:10:35.666Z,968.47
2022-10-05T07:25:37.509Z,968.58
2022-10-05T07:40:39.331Z,968.68
2022-10-05T07:55:41.140Z,968.72
2022-10-05T08:10:42.953Z,968.78
2022-10-05T08:25:44.810Z,968.93
2022-10-05T08:40:46.659Z,969.02
2022-10-05T08:55:48.489Z,969.13
2022-10-05T09:10:50.311Z,969.25
2022-10-05T09:25:52.166Z,969.31
2022-10-05T09:40:54.000Z,969.41
2022-10-05T09:55:55.855Z,969.44
2022-10-05T10:10:57.690Z,969.45
2022-10-05T10:25:59.543Z,969.52
2022-10-05T10:41:01.406Z,969.55
2022-10-05T10:56:03.260Z,969.63
2022-10-05T11:11:05.085Z,969.78
2022-10-05T11:26:06.932Z,969.89
2022-10-05T11:41:08.801Z,970.01
2022-10-05T11:56:10.658Z,970.09
2022-10-05T12:11:12.501Z,970.08
2022-10-05T12:26:14.324Z,970.14
2022-10-05T12:41:16.136Z,970.27
2022-10-05T12:56:17.992Z,970.39
2022-10-05T13:11:19.856Z,970.49
2022-10-05T13:26:21.672Z,970.59
2022-10-05T13:41:23.519Z,970.75
2022-10-05T13:56:25.378Z,970.86
2022-10-05T14:11:27.209Z,971.02
2022-10-05T14:26:29.057Z,971.13
2022-10-05T14:41:30.885Z,971.19
2022-10-05T14:56:32.702Z,971.34
2022-10-05T15:11:34.506Z,971.46
2022-10-05T15:26:36.381Z,971.43
2022-10-05T15:41:38.210Z,971.44
2022-10-05T15:56:40.054Z,971.38
2022-10-05T16:11:41.911Z,971.37
2022-10-05T16:26:43.728Z,971.47
2022-10-05T16:41:45.583Z,971.43
2022-10-05T16:56:47.442Z,971.45
2022-10-05T17:11:49.279Z,971.49
2022-10-05T17:26:51.103Z,971.38
2022-10-05T17:41:52.945Z,971.22
2022-10-05T17:56:54.761Z,971.04
2022-10-05T18:11:56.597Z,970.95
2022-10-05T18:26:58.439Z,970.88
2022-10-05T18:42:00.279Z,970.67
2022-10-05T18:57:02.096Z,970.43
2022-10-05T19:12:03.910Z,970.2
2022-10-05T19:27:05.759Z,970.08
2022-10-05T19:42:07.688Z,969.93
2022-10-05T19:57:09.555Z,969.83
2022-10-05T20:12:11.381Z,969.68
2022-10-05T20:27:15.799Z,969.52
2022-10-05T20:42:18.108Z,969.26
2022-10-05T20:57:19.975Z,969.18
2022-10-05T21:12:21.922Z,969
2022-10-05T21:27:23.774Z,968.93
2022-10-05T21:42:25.603Z,968.86
2022-10-05T21:57:27.450Z,968.8
2022-10-05T22:12:29.287Z,968.8
2022-10-05T22:27:31.375Z,968.76
2022-10-05T22:42:33.165Z,968.75
2022-10-05T22:57:34.960Z,968.65
2022-10-05T23:12:37.780Z,968.68
2022-10-05T23:27:39.616Z,968.62
2022-10-05T23:42:41.437Z,968.54
2022-10-05T23:57:43.286Z,968.57
